createdAt,value
2018-12-17T00:00:47.403Z,28.30
2018-12-17T00:03:15.633Z,28.70
2018-12-17T00:05:44.299Z,27.43
2018-12-17T00:08:12.684Z,28.07
2018-12-17T00:10:40.910Z,27.23
2018-12-17T00:13:09.237Z,28.20
2018-12-17T00:15:37.465Z,27.63
2018-12-17T00:18:05.832Z,27.47
2018-12-17T00:20:34.247Z,28.63
2018-12-17T00:23:02.610Z,26.60
2018-12-17T00:25:30.803Z,26.40
2018-12-17T00:27:59.294Z,26.83
2018-12-17T00:30:27.526Z,26.43
2018-12-17T00:32:55.859Z,25.30
2018-12-17T00:35:24.341Z,25.73
2018-12-17T00:37:52.787Z,25.80
2018-12-17T00:42:54.992Z,26.13
2018-12-17T00:45:23.757Z,24.77
2018-12-17T00:47:52.060Z,25.77
2018-12-17T00:50:20.354Z,26.03
2018-12-17T00:52:48.808Z,25.93
2018-12-17T00:55:17.076Z,26.03
2018-12-17T00:57:45.748Z,24.10
2018-12-17T01:00:14.008Z,24.90
2018-12-17T01:02:42.875Z,26.03
2018-12-17T01:05:11.316Z,25.03
2018-12-17T01:07:39.486Z,24.00
2018-12-17T01:10:08.710Z,23.63
2018-12-17T01:12:36.918Z,22.63
2018-12-17T01:15:06.725Z,21.97
2018-12-17T01:17:35.109Z,22.50
2018-12-17T01:20:03.678Z,22.70
2018-12-17T01:22:31.830Z,22.43
2018-12-17T01:25:00.259Z,21.27
2018-12-17T01:27:28.449Z,22.30
2018-12-17T01:29:57.230Z,20.87
2018-12-17T01:32:25.653Z,20.73
2018-12-17T01:34:54.129Z,20.10
2018-12-17T01:37:22.740Z,20.40
2018-12-17T01:39:50.965Z,20.60
2018-12-17T01:42:19.373Z,20.20
2018-12-17T01:44:47.577Z,19.73
2018-12-17T01:47:15.918Z,21.23
2018-12-17T01:49:44.349Z,19.83
2018-12-17T01:52:12.850Z,19.93
2018-12-17T01:54:41.218Z,20.67
2018-12-17T01:57:09.469Z,18.73
2018-12-17T01:59:38.363Z,19.47
2018-12-17T02:02:07.027Z,19.07
2018-12-17T02:04:35.502Z,17.50
2018-12-17T02:07:03.838Z,19.17
2018-12-17T02:09:32.774Z,19.60
2018-12-17T02:12:01.040Z,17.93
2018-12-17T02:14:29.308Z,19.03
2018-12-17T02:16:57.826Z,17.40
2018-12-17T02:19:26.182Z,17.73
2018-12-17T02:21:54.811Z,18.40
2018-12-17T02:24:23.239Z,17.67
2018-12-17T02:26:51.743Z,16.53
2018-12-17T02:29:20.001Z,17.23
2018-12-17T02:31:48.397Z,17.67
2018-12-17T02:34:16.746Z,17.63
2018-12-17T02:36:44.955Z,17.70
2018-12-17T02:39:13.309Z,16.90
2018-12-17T02:41:41.524Z,16.90
2018-12-17T02:44:10.065Z,17.67
2018-12-17T02:46:38.903Z,16.93
2018-12-17T02:49:07.681Z,16.40
2018-12-17T02:51:37.932Z,16.47
2018-12-17T02:54:06.185Z,16.27
2018-12-17T02:56:34.560Z,16.63
2018-12-17T02:59:02.769Z,16.87
2018-12-17T03:01:31.179Z,16.83
2018-12-17T03:03:59.488Z,16.53
2018-12-17T03:06:27.973Z,15.97
2018-12-17T03:08:56.441Z,16.50
2018-12-17T03:11:24.806Z,16.03
2018-12-17T03:13:53.003Z,16.20
2018-12-17T03:16:21.211Z,16.13
2018-12-17T03:18:49.443Z,16.23
2018-12-17T03:21:17.716Z,16.90
2018-12-17T03:23:46.098Z,16.30
2018-12-17T03:26:14.412Z,16.17
2018-12-17T03:28:42.662Z,14.67
2018-12-17T03:31:10.973Z,16.33
2018-12-17T03:33:39.226Z,16.00
2018-12-17T03:36:07.563Z,15.23
2018-12-17T03:38:36.366Z,14.03
2018-12-17T03:41:04.904Z,15.97
2018-12-17T03:43:33.078Z,15.87
2018-12-17T03:46:01.955Z,14.37
2018-12-17T03:48:30.303Z,14.83
2018-12-17T03:50:58.500Z,14.60
2018-12-17T03:53:26.692Z,14.27
2018-12-17T03:55:54.887Z,13.47
2018-12-17T03:58:23.323Z,14.27
2018-12-17T04:00:52.258Z,14.63
2018-12-17T04:03:22.207Z,13.70
2018-12-17T04:05:50.555Z,13.60
2018-12-17T04:08:19.043Z,14.63
2018-12-17T04:10:47.334Z,13.07
2018-12-17T04:13:15.675Z,13.43
2018-12-17T04:15:43.864Z,12.67
2018-12-17T04:18:12.127Z,13.33
2018-12-17T04:20:40.393Z,12.37
2018-12-17T04:23:08.831Z,13.10
2018-12-17T04:25:37.033Z,13.13
2018-12-17T04:28:09.540Z,12.10
2018-12-17T04:30:38.173Z,12.23
2018-12-17T04:33:07.242Z,12.77
2018-12-17T04:35:35.649Z,12.37
2018-12-17T04:38:04.069Z,12.40
2018-12-17T04:40:32.758Z,12.23
2018-12-17T04:43:01.131Z,12.17
2018-12-17T04:45:29.383Z,12.27
2018-12-17T04:47:58.138Z,12.10
2018-12-17T04:50:26.403Z,11.07
2018-12-17T04:52:54.629Z,11.33
2018-12-17T04:55:22.809Z,11.90
2018-12-17T04:57:51.264Z,12.43
2018-12-17T05:00:19.800Z,11.77
2018-12-17T05:02:48.036Z,11.53
2018-12-17T05:05:22.791Z,12.13
2018-12-17T05:07:50.996Z,11.33
2018-12-17T05:10:19.581Z,16.27
2018-12-17T05:12:48.171Z,12.20
2018-12-17T05:15:16.650Z,11.23
2018-12-17T05:17:44.873Z,11.87
2018-12-17T05:20:13.418Z,12.20
2018-12-17T05:22:41.926Z,11.40
2018-12-17T05:25:10.371Z,12.03
2018-12-17T05:27:39.023Z,11.77
2018-12-17T05:30:07.881Z,11.73
2018-12-17T05:32:36.124Z,10.83
2018-12-17T05:35:05.394Z,12.00
2018-12-17T05:37:33.569Z,11.30
2018-12-17T05:40:02.180Z,11.40
2018-12-17T05:42:30.416Z,11.57
2018-12-17T05:44:58.765Z,11.60
2018-12-17T05:47:27.141Z,11.47
2018-12-17T05:49:55.700Z,10.50
2018-12-17T05:52:23.898Z,10.50
2018-12-17T05:54:52.151Z,10.17
2018-12-17T05:57:20.498Z,12.27
2018-12-17T05:59:48.859Z,10.80
2018-12-17T06:02:17.210Z,11.10
2018-12-17T06:04:46.079Z,10.33
2018-12-17T06:07:14.382Z,9.77
2018-12-17T06:09:42.904Z,10.33
2018-12-17T06:12:11.507Z,10.77
2018-12-17T06:14:40.367Z,9.97
2018-12-17T06:17:08.593Z,11.30
2018-12-17T06:19:37.007Z,10.10
2018-12-17T06:22:05.862Z,11.17
2018-12-17T06:24:34.329Z,9.07
2018-12-17T06:27:02.813Z,10.00
2018-12-17T06:29:35.562Z,10.03
2018-12-17T06:32:01.408Z,10.80
2018-12-17T06:34:29.745Z,10.33
2018-12-17T06:36:58.156Z,9.53
2018-12-17T06:39:26.365Z,9.47
2018-12-17T06:41:55.184Z,9.67
2018-12-17T06:44:23.836Z,9.43
2018-12-17T06:46:52.279Z,10.10
2018-12-17T06:49:20.490Z,9.03
2018-12-17T06:51:48.750Z,8.90
2018-12-17T06:54:17.360Z,8.50
2018-12-17T06:56:45.731Z,8.27
2018-12-17T06:59:14.014Z,8.47
2018-12-17T07:01:42.469Z,9.67
2018-12-17T07:04:10.959Z,8.77
2018-12-17T07:06:39.300Z,9.23
2018-12-17T07:09:07.582Z,8.70
2018-12-17T07:11:35.800Z,8.87
2018-12-17T07:14:04.158Z,8.23
2018-12-17T07:16:32.528Z,9.67
2018-12-17T07:19:00.905Z,8.70
2018-12-17T07:21:29.162Z,9.00
2018-12-17T07:23:58.957Z,8.93
2018-12-17T07:26:28.821Z,8.77
2018-12-17T07:28:58.547Z,8.93
2018-12-17T07:31:26.743Z,8.37
2018-12-17T07:33:55.224Z,8.00
2018-12-17T07:36:23.505Z,8.17
2018-12-17T07:38:51.705Z,7.80
2018-12-17T07:41:19.991Z,8.30
2018-12-17T07:43:48.388Z,7.67
2018-12-17T07:46:16.685Z,7.50
2018-12-17T07:48:44.960Z,7.80
2018-12-17T07:51:13.165Z,11.17
2018-12-17T07:53:41.646Z,11.53
2018-12-17T07:56:09.907Z,9.13
2018-12-17T07:58:38.358Z,6.23
2018-12-17T08:01:07.551Z,6.70
2018-12-17T08:03:36.180Z,6.17
2018-12-17T08:06:04.593Z,6.30
2018-12-17T08:08:35.490Z,6.33
2018-12-17T08:11:03.529Z,6.13
2018-12-17T08:13:32.264Z,6.00
2018-12-17T08:16:00.610Z,6.93
2018-12-17T08:18:29.246Z,6.87
2018-12-17T08:20:57.678Z,6.60
2018-12-17T08:23:26.047Z,5.77
2018-12-17T08:25:54.247Z,6.70
2018-12-17T08:28:22.720Z,6.90
2018-12-17T08:30:50.941Z,6.90
2018-12-17T08:33:19.221Z,6.50
2018-12-17T08:35:47.563Z,7.83
2018-12-17T08:38:16.007Z,7.07
2018-12-17T08:40:44.521Z,7.53
2018-12-17T08:43:12.706Z,6.37
2018-12-17T08:45:40.891Z,6.43
2018-12-17T08:48:09.268Z,6.40
2018-12-17T08:50:37.500Z,5.72
2018-12-17T08:53:05.794Z,6.80
2018-12-17T08:55:34.830Z,6.80
2018-12-17T08:58:03.360Z,6.33
2018-12-17T09:00:31.611Z,6.70
2018-12-17T09:02:59.834Z,6.93
2018-12-17T09:05:28.002Z,6.87
2018-12-17T09:07:56.420Z,6.53
2018-12-17T09:10:24.622Z,6.70
2018-12-17T09:12:52.831Z,6.40
2018-12-17T09:15:21.094Z,6.80
2018-12-17T09:17:49.360Z,6.20
2018-12-17T09:20:17.579Z,6.60
2018-12-17T09:22:45.777Z,6.80
2018-12-17T09:25:14.134Z,7.53
2018-12-17T09:27:42.700Z,6.83
2018-12-17T09:30:18.042Z,6.73
2018-12-17T09:32:41.409Z,7.00
2018-12-17T09:35:09.996Z,6.23
2018-12-17T09:37:38.327Z,6.27
2018-12-17T09:40:07.200Z,6.43
2018-12-17T09:42:35.753Z,6.50
2018-12-17T09:45:04.961Z,6.67
2018-12-17T09:47:33.213Z,5.97
2018-12-17T09:50:01.414Z,6.23
2018-12-17T09:52:29.659Z,6.33
2018-12-17T09:54:58.496Z,6.53
2018-12-17T09:57:26.760Z,6.20
2018-12-17T09:59:55.064Z,6.40
2018-12-17T10:02:23.672Z,7.13
2018-12-17T10:04:52.024Z,6.50
2018-12-17T10:07:20.239Z,6.50
2018-12-17T10:09:48.716Z,6.10
2018-12-17T10:12:17.003Z,7.13
2018-12-17T10:14:45.388Z,6.83
2018-12-17T10:17:13.677Z,6.97
2018-12-17T10:19:41.936Z,6.70
2018-12-17T10:22:10.408Z,6.30
2018-12-17T10:24:38.906Z,6.13
2018-12-17T10:27:07.179Z,6.73
2018-12-17T10:29:35.837Z,6.83
2018-12-17T10:32:04.244Z,6.03
2018-12-17T10:34:32.510Z,6.80
2018-12-17T10:37:00.750Z,6.53
2018-12-17T10:39:29.169Z,6.47
2018-12-17T10:41:57.383Z,6.60
2018-12-17T10:44:25.662Z,6.97
2018-12-17T10:46:54.252Z,6.60
2018-12-17T10:49:22.575Z,7.00
2018-12-17T10:51:50.978Z,9.57
2018-12-17T10:54:19.171Z,6.60
2018-12-17T10:56:47.549Z,6.80
2018-12-17T10:59:15.828Z,7.10
2018-12-17T11:01:53.367Z,6.90
2018-12-17T11:04:26.393Z,7.00
2018-12-17T11:06:55.102Z,7.10
2018-12-17T11:09:23.426Z,7.03
2018-12-17T11:11:51.701Z,6.87
2018-12-17T11:14:19.928Z,6.97
2018-12-17T11:16:48.188Z,7.77
2018-12-17T11:19:16.362Z,8.07
2018-12-17T11:21:44.753Z,7.60
2018-12-17T11:24:13.283Z,7.93
2018-12-17T11:26:41.707Z,7.57
2018-12-17T11:29:10.077Z,8.00
2018-12-17T11:31:38.848Z,8.07
2018-12-17T11:34:07.183Z,8.97
2018-12-17T11:36:35.433Z,8.37
2018-12-17T11:39:06.387Z,8.43
2018-12-17T11:41:34.723Z,8.30
2018-12-17T11:44:02.979Z,8.57
2018-12-17T11:46:31.528Z,8.90
2018-12-17T11:48:59.795Z,9.17
2018-12-17T11:51:27.982Z,9.70
2018-12-17T11:53:56.193Z,9.10
2018-12-17T11:56:28.846Z,9.57
2018-12-17T11:58:57.235Z,9.37
2018-12-17T12:01:25.581Z,9.77
2018-12-17T12:03:54.001Z,10.40
2018-12-17T12:06:22.382Z,10.33
2018-12-17T12:08:50.705Z,10.27
2018-12-17T12:11:19.057Z,10.23
2018-12-17T12:13:47.421Z,11.07
2018-12-17T12:16:15.883Z,10.53
2018-12-17T12:18:44.270Z,11.53
2018-12-17T12:21:12.435Z,11.80
2018-12-17T12:23:40.828Z,11.57
2018-12-17T12:26:09.100Z,12.37
2018-12-17T12:28:37.405Z,13.10
2018-12-17T12:31:05.748Z,12.57
2018-12-17T12:33:34.081Z,12.80
2018-12-17T12:36:02.316Z,12.80
2018-12-17T12:38:30.800Z,13.70
2018-12-17T12:40:59.309Z,14.30
2018-12-17T12:43:27.729Z,13.90
2018-12-17T12:45:56.171Z,15.77
2018-12-17T12:48:24.367Z,15.27
2018-12-17T12:50:52.658Z,14.77
2018-12-17T12:53:21.056Z,15.43
2018-12-17T12:55:49.398Z,15.80
2018-12-17T12:58:17.622Z,16.57
2018-12-17T13:00:45.835Z,16.60
2018-12-17T13:03:14.177Z,16.23
2018-12-17T13:05:42.747Z,16.93
2018-12-17T13:08:11.729Z,17.87
2018-12-17T13:10:40.243Z,17.67
2018-12-17T13:13:08.567Z,18.77
2018-12-17T13:15:36.793Z,18.40
2018-12-17T13:18:05.067Z,18.83
2018-12-17T13:20:33.392Z,19.07
2018-12-17T13:23:01.619Z,20.10
2018-12-17T13:25:37.253Z,18.97
2018-12-17T13:28:05.963Z,20.63
2018-12-17T13:30:34.348Z,19.93
2018-12-17T13:33:02.732Z,20.27
2018-12-17T13:35:31.062Z,20.60
2018-12-17T13:37:59.255Z,20.95
2018-12-17T13:40:27.521Z,20.53
2018-12-17T13:42:56.353Z,20.73
2018-12-17T13:45:24.580Z,21.17
2018-12-17T13:47:53.006Z,19.87
2018-12-17T13:50:29.974Z,21.90
2018-12-17T13:53:01.482Z,20.70
2018-12-17T13:55:29.697Z,20.70
2018-12-17T13:57:57.965Z,21.03
2018-12-17T14:00:26.203Z,19.77
2018-12-17T14:02:54.626Z,21.77
2018-12-17T14:05:22.835Z,21.20
2018-12-17T14:07:51.174Z,19.75
2018-12-17T14:10:25.426Z,20.60
2018-12-17T14:12:53.766Z,20.50
2018-12-17T14:15:24.076Z,20.43
2018-12-17T14:17:54.408Z,20.03
2018-12-17T14:20:27.982Z,21.63
2018-12-17T14:22:56.553Z,19.80
2018-12-17T14:25:24.795Z,19.27
2018-12-17T14:27:53.033Z,19.57
2018-12-17T14:30:21.264Z,18.60
2018-12-17T14:32:49.610Z,19.30
2018-12-17T14:35:18.043Z,19.30
2018-12-17T14:37:51.628Z,18.93
2018-12-17T14:40:20.258Z,18.20
2018-12-17T14:42:48.625Z,18.00
2018-12-17T14:45:17.005Z,17.70
2018-12-17T14:47:45.234Z,18.27
2018-12-17T14:50:13.512Z,16.90
2018-12-17T14:52:42.606Z,16.93
2018-12-17T14:55:10.840Z,16.70
2018-12-17T14:57:39.041Z,15.93
2018-12-17T15:00:08.046Z,16.20
2018-12-17T15:02:36.350Z,15.07
2018-12-17T15:05:05.039Z,13.90
2018-12-17T15:07:33.273Z,14.77
2018-12-17T15:10:01.557Z,13.57
2018-12-17T15:12:29.794Z,14.77
2018-12-17T15:14:58.771Z,14.80
2018-12-17T15:17:27.161Z,13.33
2018-12-17T15:19:55.980Z,13.13
2018-12-17T15:22:24.234Z,13.33
2018-12-17T15:24:52.876Z,13.07
2018-12-17T15:27:21.416Z,13.20
2018-12-17T15:29:49.767Z,13.23
2018-12-17T15:32:17.968Z,12.47
2018-12-17T15:34:46.206Z,13.17
2018-12-17T15:37:14.590Z,13.03
2018-12-17T15:39:42.799Z,13.00
2018-12-17T15:42:11.014Z,13.37
2018-12-17T15:44:39.524Z,14.23
2018-12-17T15:47:07.924Z,13.70
2018-12-17T15:49:36.694Z,14.33
2018-12-17T15:52:05.121Z,15.20
2018-12-17T15:54:33.377Z,15.23
2018-12-17T15:57:01.931Z,15.07
2018-12-17T15:59:30.659Z,15.27
2018-12-17T16:01:58.860Z,16.67
2018-12-17T16:04:27.118Z,16.60
2018-12-17T16:06:55.423Z,17.63
2018-12-17T16:09:23.841Z,16.77
2018-12-17T16:11:52.173Z,17.23
2018-12-17T16:14:20.585Z,17.33
2018-12-17T16:16:48.913Z,17.03
2018-12-17T16:19:17.184Z,17.47
2018-12-17T16:21:45.455Z,18.23
2018-12-17T16:24:13.699Z,18.83
2018-12-17T16:26:41.920Z,18.53
2018-12-17T16:29:10.166Z,19.13
2018-12-17T16:31:38.586Z,20.17
2018-12-17T16:34:06.918Z,20.40
2018-12-17T16:36:35.343Z,20.30
2018-12-17T16:39:05.513Z,20.83
2018-12-17T16:41:33.950Z,21.20
2018-12-17T16:44:02.415Z,21.93
2018-12-17T16:46:30.751Z,21.57
2018-12-17T16:48:59.274Z,21.60
2018-12-17T16:51:27.520Z,21.13
2018-12-17T16:53:55.890Z,22.30
2018-12-17T16:56:24.324Z,21.97
2018-12-17T16:58:52.727Z,22.43
2018-12-17T17:01:21.004Z,22.60
2018-12-17T17:03:50.090Z,22.57
2018-12-17T17:06:18.409Z,23.57
2018-12-17T17:08:46.847Z,22.90
2018-12-17T17:11:15.154Z,23.57
2018-12-17T17:13:43.561Z,23.30
2018-12-17T17:16:11.974Z,23.20
2018-12-17T17:18:40.494Z,23.50
2018-12-17T17:21:08.838Z,22.60
2018-12-17T17:23:37.059Z,22.90
2018-12-17T17:26:05.432Z,23.40
2018-12-17T17:28:33.745Z,22.63
2018-12-17T17:31:02.010Z,22.90
2018-12-17T17:33:30.302Z,22.73
2018-12-17T17:35:58.564Z,23.13
2018-12-17T17:38:26.975Z,21.67
2018-12-17T17:40:55.311Z,21.57
2018-12-17T17:43:23.521Z,21.97
2018-12-17T17:45:52.735Z,22.60
2018-12-17T17:48:21.086Z,21.67
2018-12-17T17:50:49.316Z,20.73
2018-12-17T17:53:17.877Z,20.90
2018-12-17T17:55:46.218Z,21.30
2018-12-17T17:58:14.580Z,20.30
2018-12-17T18:00:42.820Z,20.30
2018-12-17T18:03:11.205Z,20.63
2018-12-17T18:05:39.604Z,21.03
2018-12-17T18:08:07.986Z,20.07
2018-12-17T18:10:36.322Z,19.47
2018-12-17T18:13:04.548Z,19.97
2018-12-17T18:15:33.162Z,18.67
2018-12-17T18:18:01.606Z,19.47
2018-12-17T18:20:29.896Z,18.13
2018-12-17T18:22:58.218Z,18.37
2018-12-17T18:25:26.983Z,18.50
2018-12-17T18:27:55.555Z,18.75
2018-12-17T18:30:23.929Z,17.77
2018-12-17T18:32:52.178Z,17.57
2018-12-17T18:35:21.009Z,18.33
2018-12-17T18:37:49.375Z,18.53
2018-12-17T18:40:17.641Z,18.67
2018-12-17T18:42:46.014Z,17.40
2018-12-17T18:45:14.371Z,18.27
2018-12-17T18:47:42.788Z,18.27
2018-12-17T18:50:11.165Z,19.32
2018-12-17T18:52:39.747Z,18.03
2018-12-17T18:55:08.446Z,19.67
2018-12-17T18:57:37.023Z,18.33
2018-12-17T19:00:05.942Z,20.90
2018-12-17T19:02:38.258Z,19.67
2018-12-17T19:05:06.553Z,19.40
2018-12-17T19:07:34.847Z,19.27
2018-12-17T19:10:03.561Z,20.40
2018-12-17T19:12:32.441Z,20.80
2018-12-17T19:15:00.717Z,20.50
2018-12-17T19:17:29.896Z,20.33
2018-12-17T19:19:59.189Z,20.47
2018-12-17T19:22:27.729Z,21.23
2018-12-17T19:24:56.512Z,21.53
2018-12-17T19:27:24.847Z,20.60
2018-12-17T19:29:53.334Z,22.30
2018-12-17T19:32:21.585Z,22.67
2018-12-17T19:34:50.091Z,22.70
2018-12-17T19:37:19.142Z,21.93
2018-12-17T19:39:47.508Z,23.17
2018-12-17T19:42:16.193Z,22.87
2018-12-17T19:44:44.951Z,21.83
2018-12-17T19:47:13.342Z,22.13
2018-12-17T19:49:41.914Z,23.93
2018-12-17T19:52:10.239Z,22.20
2018-12-17T19:54:38.617Z,21.87
2018-12-17T19:57:06.901Z,22.70
2018-12-17T19:59:35.305Z,22.43
2018-12-17T20:02:03.609Z,21.63
2018-12-17T20:04:32.169Z,21.00
2018-12-17T20:07:01.255Z,21.40
2018-12-17T20:09:29.564Z,22.67
2018-12-17T20:11:58.222Z,22.17
2018-12-17T20:14:26.824Z,21.27
2018-12-17T20:16:55.397Z,22.10
2018-12-17T20:19:23.964Z,21.07
2018-12-17T20:21:52.524Z,21.23
2018-12-17T20:24:20.878Z,20.63
2018-12-17T20:26:49.331Z,20.93
2018-12-17T20:29:17.937Z,19.33
2018-12-17T20:31:46.453Z,19.67
2018-12-17T20:34:14.953Z,20.57
2018-12-17T20:36:43.422Z,19.77
2018-12-17T20:39:11.846Z,19.77
2018-12-17T20:41:41.427Z,20.20
2018-12-17T20:44:09.780Z,18.97
2018-12-17T20:46:38.125Z,20.40
2018-12-17T20:49:06.378Z,20.83
2018-12-17T20:51:34.770Z,20.57
2018-12-17T20:54:03.991Z,20.40
2018-12-17T20:56:32.413Z,19.57
2018-12-17T20:59:00.999Z,20.03
2018-12-17T21:01:29.445Z,21.23
2018-12-17T21:03:57.863Z,20.10
2018-12-17T21:06:26.279Z,19.60
2018-12-17T21:08:54.975Z,20.57
2018-12-17T21:11:23.434Z,20.57
2018-12-17T21:13:51.849Z,19.40
2018-12-17T21:16:20.598Z,19.03
2018-12-17T21:18:49.104Z,17.97
2018-12-17T21:21:17.799Z,18.87
2018-12-17T21:23:46.564Z,18.60
2018-12-17T21:26:15.163Z,20.00
2018-12-17T21:28:43.442Z,17.60
2018-12-17T21:31:12.024Z,17.10
2018-12-17T21:33:41.911Z,17.27
2018-12-17T21:36:10.187Z,16.60
2018-12-17T21:38:38.670Z,16.50
2018-12-17T21:41:07.164Z,16.45
2018-12-17T21:43:36.120Z,16.93
2018-12-17T21:46:04.853Z,17.37
2018-12-17T21:48:33.346Z,17.83
2018-12-17T21:51:02.553Z,18.83
2018-12-17T21:53:31.155Z,18.30
2018-12-17T21:55:59.510Z,18.67
2018-12-17T21:58:27.957Z,19.57
2018-12-17T22:00:56.240Z,20.60
2018-12-17T22:03:24.631Z,20.20
2018-12-17T22:05:53.526Z,20.57
2018-12-17T22:08:22.010Z,19.87
2018-12-17T22:10:50.570Z,19.33
2018-12-17T22:13:18.836Z,18.97
2018-12-17T22:15:47.198Z,20.60
2018-12-17T22:18:15.855Z,20.40
2018-12-17T22:20:44.334Z,19.00
2018-12-17T22:23:13.024Z,17.53
2018-12-17T22:25:41.541Z,19.07
2018-12-17T22:28:09.870Z,19.60
2018-12-17T22:30:38.251Z,19.67
2018-12-17T22:33:06.830Z,19.67
2018-12-17T22:35:35.781Z,19.93
2018-12-17T22:38:04.071Z,19.73
2018-12-17T22:40:32.617Z,20.13
2018-12-17T22:43:00.962Z,21.30
2018-12-17T22:45:29.195Z,21.13
2018-12-17T22:47:57.711Z,21.17
2018-12-17T22:50:26.206Z,21.97
2018-12-17T22:52:54.641Z,21.83
2018-12-17T22:55:22.993Z,22.37
2018-12-17T22:57:51.433Z,21.83
2018-12-17T23:00:20.305Z,22.33
2018-12-17T23:02:48.697Z,21.53
2018-12-17T23:05:16.901Z,21.17
2018-12-17T23:07:46.802Z,21.93
2018-12-17T23:10:20.895Z,21.50
2018-12-17T23:12:54.834Z,21.60
2018-12-17T23:15:28.948Z,22.20
2018-12-17T23:17:57.756Z,22.97
2018-12-17T23:20:26.268Z,21.23
2018-12-17T23:22:54.940Z,22.07
2018-12-17T23:25:23.317Z,21.77
2018-12-17T23:27:51.894Z,21.47
2018-12-17T23:30:28.334Z,22.53
2018-12-17T23:33:04.918Z,22.40
2018-12-17T23:35:34.384Z,23.57
2018-12-17T23:38:03.012Z,21.70
2018-12-17T23:40:31.341Z,21.33
2018-12-17T23:42:59.894Z,20.93
2018-12-17T23:45:28.840Z,22.80
2018-12-17T23:47:57.340Z,21.07
2018-12-17T23:50:25.951Z,22.47
2018-12-17T23:52:54.465Z,21.30
2018-12-17T23:55:22.947Z,21.47
2018-12-17T23:57:51.185Z,21.77
